createdAt,value
2018-04-12T00:00:20.142Z,965.97
2018-04-12T00:00:56.931Z,965.95
2018-04-12T00:01:56.934Z,965.93
2018-04-12T00:02:56.926Z,965.93
2018-04-12T00:07:21.055Z,965.86
2018-04-12T00:08:00.055Z,965.86
2018-04-12T00:10:33.309Z,965.85
2018-04-12T00:11:31.615Z,965.79
2018-04-12T00:12:31.609Z,965.80
2018-04-12T00:17:03.440Z,965.67
2018-04-12T00:17:34.738Z,965.72
2018-04-12T00:19:06.448Z,965.70
2018-04-12T00:19:34.727Z,965.72
2018-04-12T00:20:34.721Z,965.69
2018-04-12T00:21:34.903Z,965.68
2018-04-12T00:22:34.712Z,965.68
2018-04-12T00:23:39.936Z,965.65
2018-04-12T00:24:34.714Z,965.64
2018-04-12T00:25:34.713Z,965.61
2018-04-12T00:26:35.499Z,965.63
2018-04-12T00:27:34.712Z,965.64
2018-04-12T00:28:34.762Z,965.60
2018-04-12T00:29:34.701Z,965.51
2018-04-12T00:30:34.697Z,965.60
2018-04-12T00:31:34.692Z,965.54
2018-04-12T00:32:34.699Z,965.51
2018-04-12T00:33:45.442Z,965.51
2018-04-12T00:34:34.696Z,965.48
2018-04-12T00:35:34.691Z,965.50
2018-04-12T00:36:34.781Z,965.49
2018-04-12T00:37:34.684Z,965.47
2018-04-12T00:38:57.440Z,965.47
2018-04-12T00:39:34.680Z,965.45
2018-04-12T00:40:34.686Z,965.40
2018-04-12T00:41:34.672Z,965.41
2018-04-12T00:42:34.676Z,965.38
2018-04-12T00:45:45.430Z,965.38
2018-04-12T00:46:06.255Z,965.36
2018-04-12T00:47:06.262Z,965.40
2018-04-12T00:48:06.253Z,965.38
2018-04-12T00:49:20.430Z,965.41
2018-04-12T00:50:06.248Z,965.36
2018-04-12T00:51:06.241Z,965.36
2018-04-12T00:52:06.249Z,965.32
2018-04-12T00:53:06.237Z,965.33
2018-04-12T00:55:38.007Z,965.36
2018-04-12T00:56:37.870Z,965.32
2018-04-12T00:57:37.865Z,965.28
2018-04-12T00:58:37.864Z,965.28
2018-04-12T00:59:58.899Z,965.28
2018-04-12T01:00:37.853Z,965.27
2018-04-12T01:01:37.856Z,965.27
2018-04-12T01:02:37.852Z,965.25
2018-04-12T01:03:37.855Z,965.23
2018-04-12T01:04:49.440Z,965.28
2018-04-12T01:05:37.851Z,965.23
2018-04-12T01:06:37.847Z,965.22
2018-04-12T01:07:37.843Z,965.25
2018-04-12T01:08:37.841Z,965.22
2018-04-12T01:12:42.676Z,965.22
2018-04-12T01:13:40.958Z,965.24
2018-04-12T06:43:01.317Z,964.25
2018-04-12T06:44:06.318Z,964.24
2018-04-12T06:44:52.105Z,964.22
2018-04-12T06:45:52.106Z,964.17
2018-04-12T06:46:52.105Z,964.18
2018-04-12T06:47:52.102Z,964.13
2018-04-12T06:48:52.311Z,964.13
2018-04-12T06:49:52.102Z,964.08
2018-04-12T06:50:52.108Z,964.06
2018-04-12T06:51:52.115Z,964.04
2018-04-12T06:52:52.116Z,964.22
2018-04-12T06:57:02.985Z,964.07
2018-04-12T06:57:55.369Z,964.09
2018-04-12T06:59:16.415Z,964.13
2018-04-12T06:59:55.373Z,964.21
2018-04-12T07:00:55.380Z,964.24
2018-04-12T07:01:55.382Z,964.25
2018-04-12T07:02:55.377Z,964.23
2018-04-12T07:03:55.377Z,964.22
2018-04-12T07:04:58.485Z,964.23
2018-04-12T07:05:55.400Z,964.24
2018-04-12T07:06:55.394Z,964.17
2018-04-12T07:07:55.988Z,964.21
2018-04-12T07:08:55.398Z,964.22
2018-04-12T07:28:23.165Z,964.11
2018-04-12T07:29:15.661Z,964.14
2018-04-12T07:30:15.039Z,964.14
2018-04-12T07:31:15.041Z,964.14
2018-04-12T07:32:15.041Z,964.16
2018-04-12T07:33:15.054Z,964.18
2018-04-12T07:36:04.816Z,964.30
2018-04-12T07:36:46.636Z,964.34
2018-04-12T07:37:46.638Z,964.45
2018-04-12T07:38:46.638Z,964.47
2018-04-12T07:39:49.814Z,964.43
2018-04-12T07:40:46.648Z,964.37
2018-04-12T07:41:46.638Z,964.27
2018-04-12T07:42:46.639Z,964.19
2018-04-12T07:43:47.323Z,964.18
2018-04-12T07:44:47.556Z,964.17
2018-04-12T07:45:46.657Z,964.13
2018-04-12T07:46:46.647Z,964.16
2018-04-12T07:47:47.191Z,964.16
2018-04-12T07:50:57.420Z,964.13
2018-04-12T07:51:18.732Z,964.14
2018-04-12T07:52:18.279Z,964.19
2018-04-12T07:53:19.047Z,964.22
2018-04-12T07:54:18.923Z,964.14
2018-04-12T07:55:18.284Z,964.19
2018-04-12T07:56:18.289Z,964.15
2018-04-12T07:57:18.294Z,964.10
2018-04-12T07:58:18.915Z,964.16
2018-04-12T07:59:18.290Z,964.11
2018-04-12T08:00:18.520Z,964.06
2018-04-12T08:01:18.285Z,964.05
2018-04-12T08:02:18.315Z,964.06
2018-04-12T08:03:21.415Z,964.01
2018-04-12T08:04:19.193Z,963.96
2018-04-12T08:05:18.333Z,963.95
2018-04-12T08:06:18.601Z,963.94
2018-04-12T08:07:18.340Z,963.94
2018-04-12T08:09:50.628Z,963.98
2018-04-12T08:10:49.973Z,963.94
2018-04-12T08:11:50.014Z,963.97
2018-04-12T08:12:49.977Z,963.98
2018-04-12T08:15:49.430Z,963.92
2018-04-12T08:16:21.680Z,963.95
2018-04-12T08:17:21.667Z,963.94
2018-04-12T08:19:00.751Z,963.95
2018-04-12T08:19:21.665Z,963.93
2018-04-12T08:20:21.664Z,963.94
2018-04-12T08:21:21.677Z,963.92
2018-04-12T08:22:21.685Z,963.91
2018-04-12T08:23:35.788Z,963.95
2018-04-12T08:24:21.725Z,963.93
2018-04-12T08:25:21.740Z,963.92
2018-04-12T08:26:21.729Z,963.93
2018-04-12T08:27:21.754Z,964.00
2018-04-12T08:30:12.042Z,964.00
2018-04-12T08:30:53.382Z,964.04
2018-04-12T08:31:53.393Z,964.12
2018-04-12T08:33:11.526Z,964.15
2018-04-12T08:33:53.429Z,964.21
2018-04-12T08:34:53.422Z,964.24
2018-04-12T08:35:53.434Z,964.24
2018-04-12T08:36:53.441Z,964.27
2018-04-12T08:38:15.039Z,964.30
2018-04-12T08:38:53.472Z,964.33
2018-04-12T08:39:53.512Z,964.33
2018-04-12T08:40:53.499Z,964.36
2018-04-12T08:41:53.506Z,964.38
2018-04-12T08:43:12.037Z,964.44
2018-04-12T08:43:53.549Z,964.38
2018-04-12T08:44:53.538Z,964.37
2018-04-12T08:45:53.566Z,964.39
2018-04-12T08:46:53.557Z,964.37
2018-04-12T08:47:53.872Z,964.34
2018-04-12T08:48:53.588Z,964.30
2018-04-12T08:49:53.626Z,964.33
2018-04-12T08:50:53.696Z,964.36
2018-04-12T08:51:53.623Z,964.32
2018-04-12T08:52:53.633Z,964.34
2018-04-12T08:53:54.735Z,964.32
2018-04-12T08:54:54.432Z,964.31
2018-04-12T08:55:54.919Z,964.26
2018-04-12T08:56:54.252Z,964.29
2018-04-12T08:57:53.696Z,964.33
2018-04-12T08:58:54.635Z,964.35
2018-04-12T08:59:53.725Z,964.39
2018-04-12T09:00:53.830Z,964.44
2018-04-12T09:01:53.792Z,964.46
2018-04-12T09:02:53.762Z,964.48
2018-04-12T09:03:53.808Z,964.50
2018-04-12T09:04:53.791Z,964.49
2018-04-12T09:05:54.516Z,964.44
2018-04-12T09:06:53.824Z,964.45
2018-04-12T09:07:53.820Z,964.48
2018-04-12T09:08:53.905Z,964.45
2018-04-12T09:09:53.848Z,964.48
2018-04-12T09:10:53.867Z,964.44
2018-04-12T09:11:53.870Z,964.42
2018-04-12T09:12:53.891Z,964.33
2018-04-12T09:13:53.945Z,964.36
2018-04-12T09:14:53.949Z,964.32
2018-04-12T09:15:53.984Z,964.39
2018-04-12T09:16:53.941Z,964.36
2018-04-12T09:17:54.006Z,964.38
2018-04-12T09:18:54.054Z,964.33
2018-04-12T09:19:53.975Z,964.31
2018-04-12T09:20:53.994Z,964.32
2018-04-12T09:21:54.013Z,964.24
2018-04-12T09:22:54.053Z,964.25
2018-04-12T09:23:54.067Z,964.29
2018-04-12T09:24:54.059Z,964.26
2018-04-12T09:25:54.067Z,964.31
2018-04-12T09:26:54.079Z,964.28
2018-04-12T09:27:54.094Z,964.26
2018-04-12T09:28:54.163Z,964.21
2018-04-12T09:29:54.215Z,964.19
2018-04-12T09:30:54.139Z,964.23
2018-04-12T09:31:54.147Z,964.21
2018-04-12T09:32:54.163Z,964.17
2018-04-12T09:35:33.959Z,964.18
2018-04-12T09:36:26.309Z,964.14
2018-04-12T09:37:26.321Z,964.15
2018-04-12T09:38:26.337Z,964.13
2018-04-12T09:39:44.441Z,964.13
2018-04-12T09:40:26.366Z,964.19
2018-04-12T09:41:26.378Z,964.23
2018-04-12T09:42:26.408Z,964.21
2018-04-12T09:43:26.410Z,964.17
2018-04-12T09:44:31.469Z,964.24
2018-04-12T09:45:26.523Z,964.25
2018-04-12T09:46:26.454Z,964.26
2018-04-12T09:47:26.462Z,964.27
2018-04-12T09:48:27.202Z,964.28
2018-04-12T09:51:20.374Z,964.32
2018-04-12T09:51:58.189Z,964.25
2018-04-12T09:52:58.178Z,964.20
2018-04-12T09:53:58.194Z,964.27
2018-04-12T09:54:58.257Z,964.37
2018-04-12T09:55:58.217Z,964.27
2018-04-12T09:56:58.248Z,964.31
2018-04-12T09:57:58.246Z,964.32
2018-04-12T09:58:58.266Z,964.28
2018-04-12T10:00:20.287Z,964.26
2018-04-12T10:00:58.299Z,964.35
2018-04-12T10:01:58.306Z,964.30
2018-04-12T10:02:58.334Z,964.30
2018-04-12T10:04:01.563Z,964.26
2018-04-12T10:04:58.453Z,964.25
2018-04-12T10:05:58.377Z,964.20
2018-04-12T10:06:58.394Z,964.18
2018-04-12T10:07:58.414Z,964.18
2018-04-12T10:08:58.515Z,964.13
2018-04-12T10:09:58.476Z,964.13
2018-04-12T10:10:58.496Z,964.13
2018-04-12T10:11:58.469Z,964.11
2018-04-12T10:12:58.476Z,964.07
2018-04-12T10:13:58.500Z,963.95
2018-04-12T10:14:59.388Z,963.99
2018-04-12T10:15:58.528Z,963.95
2018-04-12T10:16:58.549Z,963.95
2018-04-12T10:17:59.345Z,963.95
2018-04-12T10:18:58.585Z,963.99
2018-04-12T10:19:58.638Z,964.01
2018-04-12T10:20:58.600Z,964.03
2018-04-12T10:21:58.614Z,964.02
2018-04-12T10:22:58.635Z,964.05
2018-04-12T10:23:58.649Z,964.05
2018-04-12T10:25:09.285Z,964.03
2018-04-12T10:25:58.682Z,964.03
2018-04-12T10:26:58.701Z,964.00
2018-04-12T10:27:58.719Z,963.96
2018-04-12T10:28:58.741Z,963.96
2018-04-12T10:29:59.291Z,963.96
2018-04-12T10:30:59.758Z,963.90
2018-04-12T10:31:59.130Z,963.91
2018-04-12T10:32:58.795Z,963.94
2018-04-12T10:33:58.819Z,963.88
2018-04-12T10:34:59.719Z,963.87
2018-04-12T10:35:58.848Z,963.81
2018-04-12T10:36:58.863Z,963.90
2018-04-12T10:37:58.875Z,963.88
2018-04-12T10:38:58.900Z,963.90
2018-04-12T10:39:59.239Z,963.91
2018-04-12T10:40:58.936Z,963.89
2018-04-12T10:41:58.949Z,963.92
2018-04-12T10:42:58.968Z,963.90
2018-04-12T10:43:58.985Z,963.92
2018-04-12T10:44:59.000Z,963.82
2018-04-12T10:46:13.311Z,963.84
2018-04-12T10:46:59.036Z,963.81
2018-04-12T10:47:59.047Z,963.86
2018-04-12T10:48:59.076Z,963.78
2018-04-12T10:49:59.525Z,963.82
2018-04-12T10:50:59.140Z,963.84
2018-04-12T10:51:59.140Z,963.93
2018-04-12T10:52:59.129Z,963.88
2018-04-12T10:53:59.153Z,963.86
2018-04-12T10:54:59.232Z,963.80
2018-04-12T10:55:59.741Z,963.78
2018-04-12T10:56:59.206Z,963.74
2018-04-12T10:57:59.223Z,963.80
2018-04-12T10:58:59.242Z,963.77
2018-04-12T10:59:59.316Z,963.85
2018-04-12T11:00:59.280Z,963.84
2018-04-12T11:01:59.290Z,963.85
2018-04-12T11:02:59.310Z,963.82
2018-04-12T11:03:59.327Z,963.86
2018-04-12T11:04:59.410Z,963.65
2018-04-12T11:05:59.360Z,963.60
2018-04-12T11:06:59.371Z,963.58
2018-04-12T11:07:59.391Z,963.68
2018-04-12T11:08:59.414Z,963.66
2018-04-12T11:09:59.471Z,963.76
2018-04-12T11:10:59.445Z,963.79
2018-04-12T11:11:59.456Z,963.84
2018-04-12T11:12:59.482Z,963.77
2018-04-12T11:13:59.485Z,963.77
2018-04-12T11:14:59.654Z,963.65
2018-04-12T11:15:59.563Z,963.48
2018-04-12T11:16:59.541Z,963.56
2018-04-12T11:17:59.555Z,963.63
2018-04-12T11:18:59.575Z,963.75
2018-04-12T11:19:59.844Z,963.73
2018-04-12T11:20:59.636Z,963.48
2018-04-12T11:21:59.637Z,963.29
2018-04-12T11:22:59.632Z,963.29
2018-04-12T11:23:59.649Z,963.43
2018-04-12T11:24:59.704Z,963.34
2018-04-12T11:25:59.692Z,963.23
2018-04-12T11:27:00.256Z,963.18
2018-04-12T11:27:59.715Z,963.24
2018-04-12T11:28:59.721Z,963.11
2018-04-12T11:30:00.382Z,963.16
2018-04-12T11:30:59.753Z,963.18
2018-04-12T11:31:59.763Z,963.22
2018-04-12T11:32:59.777Z,963.26
2018-04-12T11:34:05.342Z,963.31
2018-04-12T11:34:59.806Z,963.30
2018-04-12T11:35:59.812Z,963.30
2018-04-12T11:36:59.847Z,963.30
2018-04-12T11:37:59.838Z,963.30
2018-04-12T11:38:59.882Z,963.32
2018-04-12T11:39:59.862Z,963.36
2018-04-12T11:40:59.875Z,963.37
2018-04-12T11:41:59.882Z,963.38
2018-04-12T11:42:59.891Z,963.37
2018-04-12T11:43:59.954Z,963.38
2018-04-12T11:44:59.911Z,963.35
2018-04-12T11:45:59.927Z,963.37
2018-04-12T11:46:59.993Z,963.38
2018-04-12T11:47:59.964Z,963.38
2018-04-12T11:49:00.394Z,963.43
2018-04-12T11:50:00.017Z,963.40
2018-04-12T11:50:59.999Z,963.53
2018-04-12T11:52:00.009Z,963.57
2018-04-12T11:53:00.022Z,963.56
2018-04-12T11:54:24.353Z,963.85
2018-04-12T11:55:00.049Z,963.76
2018-04-12T11:56:00.091Z,963.75
2018-04-12T11:57:00.065Z,963.90
2018-04-12T11:58:00.079Z,963.97
2018-04-12T11:59:00.083Z,963.86
2018-04-12T12:00:00.135Z,963.84
2018-04-12T12:01:00.109Z,963.68
2018-04-12T12:02:00.123Z,963.66
2018-04-12T12:03:00.134Z,963.93
2018-04-12T12:04:00.147Z,963.87
2018-04-12T12:05:00.208Z,963.85
2018-04-12T12:06:00.171Z,963.80
2018-04-12T12:07:00.285Z,963.84
2018-04-12T12:08:00.203Z,963.72
2018-04-12T12:09:00.219Z,963.59
2018-04-12T12:10:00.279Z,963.55
2018-04-12T12:11:00.248Z,963.62
2018-04-12T12:12:00.366Z,963.78
2018-04-12T12:13:00.275Z,963.73
2018-04-12T12:14:00.331Z,963.70
2018-04-12T12:15:00.304Z,963.89
2018-04-12T12:16:00.320Z,963.97
2018-04-12T12:17:00.336Z,963.96
2018-04-12T12:18:00.361Z,963.94
2018-04-12T12:19:00.852Z,963.91
2018-04-12T12:20:00.373Z,963.79
2018-04-12T12:21:00.396Z,963.85
2018-04-12T12:22:00.413Z,963.74
2018-04-12T12:23:00.421Z,963.76
2018-04-12T12:24:00.438Z,963.77
2018-04-12T12:25:00.507Z,963.74
2018-04-12T12:26:00.466Z,963.74
2018-04-12T12:27:00.482Z,963.79
2018-04-12T12:28:00.498Z,963.87
2018-04-12T12:29:00.651Z,964.04
2018-04-12T12:30:00.532Z,964.07
2018-04-12T12:31:00.540Z,964.07
2018-04-12T12:32:00.556Z,964.11
2018-04-12T12:33:00.571Z,963.97
2018-04-12T12:34:00.899Z,963.93
2018-04-12T12:35:00.599Z,963.87
2018-04-12T12:36:00.616Z,963.96
2018-04-12T12:37:00.625Z,963.86
2018-04-12T12:38:00.648Z,963.84
2018-04-12T12:39:00.697Z,963.86
2018-04-12T12:40:00.680Z,963.84
2018-04-12T12:41:00.692Z,963.89
2018-04-12T12:42:00.710Z,963.88
2018-04-12T12:43:00.726Z,963.93
2018-04-12T12:44:00.777Z,963.97
2018-04-12T12:45:00.760Z,963.79
2018-04-12T12:46:01.349Z,963.76
2018-04-12T12:47:00.836Z,963.92
2018-04-12T12:48:00.807Z,963.93
2018-04-12T12:49:00.869Z,963.75
2018-04-12T12:50:00.837Z,963.66
2018-04-12T12:51:00.867Z,963.63
2018-04-12T12:52:00.878Z,963.62
2018-04-12T12:53:00.884Z,963.61
2018-04-12T12:54:02.859Z,963.70
2018-04-12T12:55:00.917Z,963.83
2018-04-12T12:56:01.010Z,963.86
2018-04-12T12:57:00.954Z,963.65
2018-04-12T12:58:00.966Z,963.56
2018-04-12T12:59:01.366Z,963.63
2018-04-12T13:00:01.005Z,963.54
2018-04-12T13:01:01.022Z,963.54
2018-04-12T13:02:01.033Z,963.44
2018-04-12T13:03:01.074Z,963.44
2018-04-12T13:04:01.144Z,963.52
2018-04-12T13:05:01.074Z,963.42
2018-04-12T13:06:01.093Z,963.41
2018-04-12T13:07:01.186Z,963.47
2018-04-12T13:08:01.122Z,963.44
2018-04-12T13:09:01.382Z,963.55
2018-04-12T13:10:01.876Z,963.51
2018-04-12T13:11:01.173Z,963.44
2018-04-12T13:12:01.189Z,963.40
2018-04-12T13:13:01.207Z,963.43
2018-04-12T13:14:01.278Z,963.35
2018-04-12T13:15:01.823Z,963.45
2018-04-12T13:16:01.242Z,963.40
2018-04-12T13:17:01.264Z,963.42
2018-04-12T13:18:01.275Z,963.44
2018-04-12T13:19:01.947Z,963.37
2018-04-12T13:20:01.290Z,963.32
2018-04-12T13:21:01.318Z,963.39
2018-04-12T13:22:01.319Z,963.43
2018-04-12T13:23:01.336Z,963.42
2018-04-12T13:24:01.365Z,963.32
2018-04-12T13:25:01.922Z,963.31
2018-04-12T13:26:01.385Z,963.38
2018-04-12T13:27:01.401Z,963.49
2018-04-12T13:28:01.396Z,963.52
2018-04-12T13:29:01.412Z,963.52
2018-04-12T13:30:01.612Z,963.53
2018-04-12T13:31:01.452Z,963.57
2018-04-12T13:32:01.466Z,963.62
2018-04-12T13:33:02.387Z,963.70
2018-04-12T13:34:01.487Z,963.65
2018-04-12T13:35:03.372Z,963.67
2018-04-12T13:36:01.514Z,963.66
2018-04-12T13:37:01.523Z,963.67
2018-04-12T13:38:01.538Z,963.61
2018-04-12T13:39:01.554Z,963.37
2018-04-12T13:40:01.614Z,963.44
2018-04-12T13:41:01.586Z,963.45
2018-04-12T13:42:01.640Z,963.53
2018-04-12T13:43:01.622Z,963.59
2018-04-12T13:44:01.633Z,963.41
2018-04-12T13:45:03.404Z,963.43
2018-04-12T13:46:01.658Z,963.41
2018-04-12T13:47:01.671Z,963.45
2018-04-12T13:48:01.700Z,963.41
2018-04-12T13:49:01.706Z,963.34
2018-04-12T13:50:01.845Z,963.36
2018-04-12T13:51:01.732Z,963.35
2018-04-12T13:52:01.746Z,963.36
2018-04-12T13:53:01.757Z,963.36
2018-04-12T13:54:09.443Z,963.38
2018-04-12T13:55:01.815Z,963.38
2018-04-12T13:56:01.792Z,963.40
2018-04-12T13:57:01.809Z,963.40
2018-04-12T13:58:01.815Z,963.41
2018-04-12T13:59:01.913Z,963.38
2018-04-12T14:00:01.857Z,963.40
2018-04-12T14:01:01.846Z,963.32
2018-04-12T14:02:01.860Z,963.40
2018-04-12T14:03:01.877Z,963.35
2018-04-12T14:04:13.138Z,963.34
2018-04-12T14:05:01.893Z,963.34
2018-04-12T14:06:01.925Z,963.32
2018-04-12T14:07:01.917Z,963.29
2018-04-12T14:08:01.926Z,963.30
2018-04-12T14:09:01.934Z,963.30
2018-04-12T14:10:07.427Z,963.35
2018-04-12T14:11:01.959Z,963.31
2018-04-12T14:12:01.966Z,963.28
2018-04-12T14:13:01.975Z,963.29
2018-04-12T14:14:01.987Z,963.23
2018-04-12T14:15:13.100Z,963.33
2018-04-12T14:16:02.000Z,963.32
2018-04-12T14:17:02.019Z,963.30
2018-04-12T14:18:02.019Z,963.26
2018-04-12T14:19:02.039Z,963.18
2018-04-12T14:20:02.390Z,963.23
2018-04-12T14:21:02.608Z,963.18
2018-04-12T14:22:02.060Z,963.19
2018-04-12T14:23:02.075Z,963.19
2018-04-12T14:24:02.102Z,963.17
2018-04-12T14:25:07.938Z,963.22
2018-04-12T14:26:02.108Z,963.22
2018-04-12T14:27:02.122Z,963.21
2018-04-12T14:28:02.128Z,963.24
2018-04-12T14:29:02.140Z,963.23
2018-04-12T14:30:02.211Z,963.22
2018-04-12T14:31:02.167Z,963.23
2018-04-12T14:32:02.173Z,963.22
2018-04-12T14:33:02.179Z,963.35
2018-04-12T14:34:02.189Z,963.31
2018-04-12T14:35:02.253Z,963.30
2018-04-12T14:36:02.224Z,963.29
2018-04-12T14:37:02.236Z,963.26
2018-04-12T14:38:02.229Z,963.32
2018-04-12T14:39:02.245Z,963.40
2018-04-12T14:40:02.301Z,963.43
2018-04-12T14:41:02.273Z,963.47
2018-04-12T14:42:02.286Z,963.44
2018-04-12T14:43:02.290Z,963.40
2018-04-12T14:44:02.317Z,963.39
2018-04-12T14:45:03.373Z,963.37
2018-04-12T14:46:02.331Z,963.30
2018-04-12T14:47:02.346Z,963.30
2018-04-12T14:48:02.362Z,963.30
2018-04-12T14:49:02.387Z,963.22
2018-04-12T14:50:02.431Z,963.30
2018-04-12T14:51:02.388Z,963.30
2018-04-12T14:52:02.406Z,963.43
2018-04-12T14:53:02.418Z,963.32
2018-04-12T14:54:02.427Z,963.39
2018-04-12T14:55:02.477Z,963.37
2018-04-12T14:56:02.456Z,963.35
2018-04-12T14:57:02.477Z,963.42
2018-04-12T14:58:02.481Z,963.39
2018-04-12T14:59:02.497Z,963.33
2018-04-12T15:00:02.538Z,963.30
2018-04-12T15:01:02.555Z,963.34
2018-04-12T15:02:02.531Z,963.25
2018-04-12T15:03:02.539Z,963.22
2018-04-12T15:04:02.553Z,963.23
2018-04-12T15:05:16.899Z,963.26
2018-04-12T15:06:02.582Z,963.36
2018-04-12T15:07:02.592Z,963.28
2018-04-12T15:08:02.616Z,963.23
2018-04-12T15:09:02.618Z,963.25
2018-04-12T15:10:02.675Z,963.23
2018-04-12T15:11:02.646Z,963.27
2018-04-12T15:12:02.652Z,963.33
2018-04-12T15:13:02.683Z,963.35
2018-04-12T15:14:02.669Z,963.34
2018-04-12T15:15:05.999Z,963.20
2018-04-12T15:16:02.734Z,963.30
2018-04-12T15:17:02.712Z,963.32
2018-04-12T15:18:02.715Z,963.34
2018-04-12T15:19:02.727Z,963.30
2018-04-12T15:20:02.777Z,963.42
2018-04-12T15:21:02.748Z,963.38
2018-04-12T15:22:02.760Z,963.44
2018-04-12T15:23:02.772Z,963.34
2018-04-12T15:24:02.785Z,963.34
2018-04-12T15:25:02.851Z,963.38
2018-04-12T15:26:02.800Z,963.37
2018-04-12T15:27:02.812Z,963.41
2018-04-12T15:28:02.824Z,963.31
2018-04-12T15:29:02.838Z,963.31
2018-04-12T15:30:03.462Z,963.37
2018-04-12T15:31:02.854Z,963.36
2018-04-12T15:32:02.887Z,963.31
2018-04-12T15:33:02.874Z,963.32
2018-04-12T15:34:02.885Z,963.26
2018-04-12T15:35:03.137Z,963.34
2018-04-12T15:36:02.905Z,963.31
2018-04-12T15:37:02.924Z,963.33
2018-04-12T15:38:02.931Z,963.31
2018-04-12T15:39:02.933Z,963.35
2018-04-12T15:40:02.951Z,963.36
2018-04-12T15:41:03.007Z,963.34
2018-04-12T15:42:03.365Z,963.33
2018-04-12T15:43:02.991Z,963.34
2018-04-12T15:44:02.988Z,963.34
2018-04-12T15:45:03.004Z,963.33
2018-04-12T15:46:03.542Z,963.35
2018-04-12T15:47:03.018Z,963.31
2018-04-12T15:48:03.029Z,963.33
2018-04-12T15:49:03.036Z,963.32
2018-04-12T15:50:03.041Z,963.35
2018-04-12T15:51:03.169Z,963.35
2018-04-12T15:52:31.934Z,963.34
2018-04-12T15:53:03.081Z,963.36
2018-04-12T15:54:03.085Z,963.35
2018-04-12T15:55:03.139Z,963.32
2018-04-12T15:56:03.424Z,963.37
2018-04-12T15:57:03.113Z,963.35
2018-04-12T15:58:03.130Z,963.38
2018-04-12T15:59:03.139Z,963.33
2018-04-12T16:00:03.142Z,963.37
2018-04-12T16:01:24.524Z,963.40
2018-04-12T16:02:03.159Z,963.41
2018-04-12T16:03:03.166Z,963.36
2018-04-12T16:04:03.192Z,963.40
2018-04-12T16:05:03.191Z,963.37
2018-04-12T16:06:03.208Z,963.37
2018-04-12T16:07:10.931Z,963.35
2018-04-12T16:08:03.224Z,963.33
2018-04-12T16:09:03.235Z,963.34
2018-04-12T16:10:03.244Z,963.35
2018-04-12T16:11:03.248Z,963.32
2018-04-12T16:12:04.133Z,963.31
2018-04-12T16:13:03.268Z,963.32
2018-04-12T16:14:03.273Z,963.34
2018-04-12T16:15:03.285Z,963.34
2018-04-12T16:16:03.337Z,963.32
2018-04-12T16:17:03.303Z,963.34
2018-04-12T16:18:03.315Z,963.38
2018-04-12T16:19:03.321Z,963.39
2018-04-12T16:20:03.344Z,963.39
2018-04-12T16:21:03.370Z,963.35
2018-04-12T16:22:03.350Z,963.37
2018-04-12T16:23:03.350Z,963.36
2018-04-12T16:24:03.364Z,963.36
2018-04-12T16:25:03.375Z,963.38
2018-04-12T16:26:03.431Z,963.35
2018-04-12T16:27:03.578Z,963.38
2018-04-12T16:28:04.017Z,963.31
2018-04-12T16:29:03.413Z,963.30
2018-04-12T16:30:04.376Z,963.27
2018-04-12T16:31:03.472Z,963.27
2018-04-12T16:32:03.434Z,963.25
2018-04-12T16:33:03.438Z,963.26
2018-04-12T16:34:03.442Z,963.23
2018-04-12T16:35:03.453Z,963.24
2018-04-12T16:36:03.525Z,963.18
2018-04-12T16:37:03.476Z,963.22
2018-04-12T16:38:03.485Z,963.21
2018-04-12T16:39:03.490Z,963.22
2018-04-12T16:40:03.498Z,963.18
2018-04-12T16:41:03.578Z,963.18
2018-04-12T16:42:03.508Z,963.21
2018-04-12T16:43:03.518Z,963.23
2018-04-12T16:44:04.378Z,963.23
2018-04-12T16:45:03.533Z,963.21
2018-04-12T16:46:03.546Z,963.23
2018-04-12T16:47:11.444Z,963.22
2018-04-12T16:48:03.549Z,963.19
2018-04-12T16:49:03.558Z,963.22
2018-04-12T16:50:03.567Z,963.19
2018-04-12T16:51:03.601Z,963.22
2018-04-12T16:52:05.443Z,963.17
2018-04-12T16:53:05.859Z,963.19
2018-04-12T16:54:03.602Z,963.17
2018-04-12T16:55:03.597Z,963.19
2018-04-12T16:56:03.625Z,963.17
2018-04-12T16:57:03.934Z,963.22
2018-04-12T16:58:03.616Z,963.17
2018-04-12T16:59:03.620Z,963.23
2018-04-12T17:00:03.633Z,963.27
2018-04-12T17:01:03.637Z,963.23
2018-04-12T17:02:03.966Z,963.27
2018-04-12T17:03:03.655Z,963.25
2018-04-12T17:04:03.769Z,963.25
2018-04-12T17:05:03.663Z,963.26
2018-04-12T17:06:03.667Z,963.25
2018-04-12T17:07:03.750Z,963.30
2018-04-12T17:08:03.682Z,963.28
2018-04-12T17:09:03.693Z,963.28
2018-04-12T17:10:03.692Z,963.26
2018-04-12T17:11:03.701Z,963.21
2018-04-12T17:12:04.572Z,963.26
2018-04-12T17:13:03.714Z,963.24
2018-04-12T17:14:03.720Z,963.25
2018-04-12T17:15:03.724Z,963.22
2018-04-12T17:16:03.729Z,963.21
2018-04-12T17:17:03.944Z,963.22
2018-04-12T17:18:03.744Z,963.23
2018-04-12T17:19:03.748Z,963.26
2018-04-12T17:20:03.752Z,963.21
2018-04-12T17:21:03.760Z,963.23
2018-04-12T17:23:41.565Z,963.22
2018-04-12T17:25:39.549Z,963.22
2018-04-12T17:26:40.049Z,963.24
2018-04-12T17:27:39.170Z,963.21
2018-04-12T17:28:38.019Z,963.21
2018-04-12T17:29:41.053Z,963.22
2018-04-12T17:30:36.728Z,963.23
2018-04-12T17:31:38.951Z,963.22
2018-04-12T17:32:42.613Z,963.20
2018-04-12T17:33:38.760Z,963.21
2018-04-12T17:34:38.054Z,963.19
2018-04-12T17:35:39.215Z,963.23
2018-04-12T17:36:40.638Z,963.20
2018-04-12T17:37:40.085Z,963.22
2018-04-12T17:38:39.131Z,963.25
2018-04-12T17:39:39.876Z,963.26
2018-04-12T17:40:37.454Z,963.24
2018-04-12T17:41:36.478Z,963.29
2018-04-12T17:47:16.145Z,963.19
2018-04-12T17:48:13.466Z,963.19
2018-04-12T17:49:13.492Z,963.16
2018-04-12T17:50:13.464Z,963.16
2018-04-12T17:51:13.468Z,963.17
2018-04-12T17:52:27.627Z,963.16
2018-04-12T17:53:13.487Z,963.17
2018-04-12T17:54:13.496Z,963.15
2018-04-12T17:55:13.525Z,963.14
2018-04-12T17:56:13.523Z,963.14
2018-04-12T17:57:13.555Z,963.11
2018-04-12T17:58:13.503Z,963.13
2018-04-12T17:59:13.671Z,963.20
2018-04-12T18:00:13.502Z,963.19
2018-04-12T18:01:13.520Z,963.20
2018-04-12T18:02:13.670Z,963.22
2018-04-12T18:03:13.501Z,963.22
2018-04-12T18:04:13.509Z,963.22
2018-04-12T18:05:13.514Z,963.19
2018-04-12T18:06:13.514Z,963.20
2018-04-12T18:08:48.763Z,963.19
2018-04-12T18:09:52.723Z,963.20
2018-04-12T18:10:46.523Z,963.21
2018-04-12T18:11:54.087Z,963.19
2018-04-12T18:12:48.748Z,963.14
2018-04-12T18:14:46.024Z,963.15
2018-04-12T18:15:47.692Z,963.21
2018-04-12T18:16:46.589Z,963.21
2018-04-12T18:17:46.737Z,963.21
2018-04-12T18:18:47.203Z,963.24
2018-04-12T18:19:47.093Z,963.18
2018-04-12T18:20:46.050Z,963.21
2018-04-12T18:22:10.292Z,963.18
2018-04-12T18:22:49.089Z,963.16
2018-04-12T18:23:48.726Z,963.17
2018-04-12T18:24:49.670Z,963.17
2018-04-12T18:25:50.145Z,963.16
2018-04-12T18:26:46.892Z,963.13
2018-04-12T18:27:51.115Z,963.14
2018-04-12T18:28:46.082Z,963.12
2018-04-12T18:29:46.088Z,963.09
2018-04-12T18:30:49.090Z,963.10
2018-04-12T18:31:46.284Z,963.10
2018-04-12T18:32:53.676Z,963.12
2018-04-12T18:33:49.091Z,963.08
2018-04-12T18:34:47.834Z,963.06
2018-04-12T18:35:46.110Z,963.10
2018-04-12T18:37:21.288Z,963.04
2018-04-12T18:37:53.675Z,963.04
2018-04-12T18:38:47.779Z,963.02
2018-04-12T18:39:50.150Z,963.05
2018-04-12T18:40:47.414Z,963.03
2018-04-12T18:41:46.170Z,963.04
2018-04-12T18:42:53.818Z,962.99
2018-04-12T18:43:47.615Z,963.01
2018-04-12T18:44:46.152Z,962.98
2018-04-12T18:45:52.771Z,962.94
2018-04-12T18:46:56.796Z,962.96
2018-04-12T18:47:46.156Z,962.96
2018-04-12T18:49:00.857Z,962.92
2018-04-12T18:49:46.168Z,962.96
2018-04-12T18:50:46.157Z,962.95
2018-04-12T18:51:46.217Z,962.93